Time;durP1;ratioP1;P1;durP2;ratioP2;P2;SDS_P1;SDS_P2;PMS_P1;PMS_P2;Temp;Humidity;BMP_temperature;BMP_pressure;BME280_temperature;BME280_humidity;BME280_pressure;Samples;Min_cycle;Max_cycle;Signal;HPM_P1;HPM_P2
2024/02/25 00:01:17;;;;;;;1.58;0.90;;;;;;;6.00;44.46;99779.16;5033607;28;20041;-78
2024/02/25 00:03:45;;;;;;;2.15;1.30;;;;;;;5.99;44.27;99777.44;5035123;28;20041;-77
2024/02/25 00:06:13;;;;;;;2.88;1.30;;;;;;;6.01;44.23;99774.59;5011309;28;20120;-78
2024/02/25 00:08:42;;;;;;;2.05;1.02;;;;;;;6.02;44.30;99770.88;5012860;28;20046;-79
2024/02/25 00:11:12;;;;;;;2.75;1.17;;;;;;;6.02;44.30;99777.19;5023252;28;20109;-78
2024/02/25 00:16:36;;;;;;;1.70;1.10;;;;;;;5.99;44.40;99768.41;5017703;28;20351;-79
2024/02/25 00:19:04;;;;;;;1.90;1.02;;;;;;;6.01;44.24;99761.00;5028490;28;20053;-79
2024/02/25 00:21:32;;;;;;;2.42;1.30;;;;;;;6.01;44.35;99761.00;5009697;28;20042;-79
2024/02/25 00:24:00;;;;;;;3.38;1.10;;;;;;;6.00;44.48;99757.44;5025722;28;20056;-79
2024/02/25 00:26:30;;;;;;;2.10;1.05;;;;;;;6.00;44.57;99757.44;5004490;28;20042;-79
2024/02/25 00:28:58;;;;;;;2.15;1.20;;;;;;;5.99;44.34;99752.13;5032394;28;20061;-79
2024/02/25 00:31:26;;;;;;;2.33;1.10;;;;;;;6.00;44.52;99745.69;5008260;28;20045;-79
2024/02/25 00:33:54;;;;;;;2.33;1.15;;;;;;;6.00;44.45;99751.13;5007056;28;20162;-79
2024/02/25 00:36:23;;;;;;;3.10;1.17;;;;;;;6.02;44.62;99747.31;5004726;28;20045;-79
2024/02/25 00:38:51;;;;;;;2.13;1.10;;;;;;;6.00;44.56;99743.84;5008585;28;20046;-79
2024/02/25 00:41:19;;;;;;;3.80;1.20;;;;;;;6.02;44.69;99744.59;5010572;28;20045;-79
2024/02/25 00:43:49;;;;;;;2.28;1.17;;;;;;;6.04;44.71;99726.28;5018498;28;20096;-79
2024/02/25 00:46:17;;;;;;;1.85;1.10;;;;;;;6.04;44.61;99748.00;5011934;28;20153;-79
2024/02/25 00:48:45;;;;;;;2.13;1.00;;;;;;;6.04;44.53;99739.00;5019924;28;20061;-79
2024/02/25 00:51:13;;;;;;;2.53;1.10;;;;;;;6.04;44.73;99742.56;5004254;28;20048;-78
2024/02/25 00:53:41;;;;;;;3.10;1.30;;;;;;;6.07;44.59;99741.47;5028730;28;20038;-79
2024/02/25 00:56:09;;;;;;;1.83;1.20;;;;;;;6.09;44.67;99749.47;5022953;28;20072;-79
2024/02/25 00:58:38;;;;;;;2.40;1.10;;;;;;;6.09;44.41;99744.91;5019158;28;20064;-79
2024/02/25 01:01:14;;;;;;;2.83;1.10;;;;;;;6.10;44.64;99746.63;5028984;28;20041;-79
2024/02/25 01:03:43;;;;;;;1.65;1.10;;;;;;;6.11;44.55;99744.78;5004477;28;20048;-79
2024/02/25 01:06:11;;;;;;;2.05;0.88;;;;;;;6.13;44.58;99735.47;5026417;28;20049;-79
2024/02/25 01:08:41;;;;;;;2.88;1.10;;;;;;;6.13;44.51;99740.06;5011549;28;20447;-78
2024/02/25 01:11:10;;;;;;;2.42;0.90;;;;;;;6.16;44.61;99742.53;5006953;28;20068;-79
2024/02/25 01:13:38;;;;;;;2.63;1.00;;;;;;;6.15;44.78;99749.81;5017023;28;20045;-79
2024/02/25 01:16:07;;;;;;;1.85;1.10;;;;;;;6.18;44.51;99746.84;5022579;28;20042;-78
2024/02/25 01:18:36;;;;;;;2.83;1.27;;;;;;;6.18;44.43;99746.84;5008176;28;20409;-79
2024/02/25 01:21:04;;;;;;;2.33;1.10;;;;;;;6.20;44.59;99744.00;5011514;28;20590;-79
2024/02/25 01:23:32;;;;;;;2.92;1.35;;;;;;;6.20;44.61;99746.72;5013949;28;20044;-79
2024/02/25 01:26:00;;;;;;;2.53;1.00;;;;;;;6.21;44.64;99740.25;4999821;28;20048;-79
2024/02/25 01:28:29;;;;;;;2.25;1.10;;;;;;;6.22;44.77;99755.56;5024665;28;20742;-79
2024/02/25 01:30:57;;;;;;;2.05;0.93;;;;;;;6.22;44.39;99741.97;5002992;28;20037;-78
2024/02/25 01:33:26;;;;;;;2.17;1.33;;;;;;;6.24;44.33;99735.44;5002671;28;20057;-77
2024/02/25 01:35:54;;;;;;;1.75;1.00;;;;;;;6.24;44.21;99742.72;5010722;28;20049;-78
2024/02/25 01:38:22;;;;;;;1.98;1.00;;;;;;;6.26;44.64;99744.31;5000880;28;20041;-77
2024/02/25 01:40:52;;;;;;;2.45;1.00;;;;;;;6.27;44.31;99742.47;5029664;28;20053;-78
2024/02/25 01:43:20;;;;;;;1.67;1.00;;;;;;;6.27;44.33;99737.03;5027704;28;20121;-78
2024/02/25 01:45:48;;;;;;;2.03;0.90;;;;;;;6.27;44.30;99728.88;5008843;28;20042;-78
2024/02/25 01:48:19;;;;;;;2.58;1.10;;;;;;;6.30;44.26;99742.16;5024825;28;20129;-78
2024/02/25 01:50:51;;;;;;;1.60;0.90;;;;;;;6.29;44.41;99741.31;5004926;28;20056;-78
2024/02/25 01:53:20;;;;;;;2.08;1.15;;;;;;;6.30;44.54;99739.44;5024256;28;20342;-78
2024/02/25 01:55:50;;;;;;;1.08;0.70;;;;;;;6.31;44.43;99735.75;5005698;28;20042;-77
2024/02/25 01:58:18;;;;;;;2.75;1.02;;;;;;;6.32;44.29;99737.47;5009850;28;20060;-78
2024/02/25 02:00:48;;;;;;;2.58;0.93;;;;;;;6.34;44.21;99738.19;5010601;28;20073;-78
2024/02/25 02:03:16;;;;;;;2.65;1.10;;;;;;;6.33;44.53;99731.91;5008453;28;20097;-78
2024/02/25 02:05:44;;;;;;;2.40;1.00;;;;;;;6.35;44.37;99731.78;5034663;28;20106;-78
2024/02/25 02:08:14;;;;;;;2.67;1.20;;;;;;;6.35;44.12;99727.19;5018102;28;20053;-77
2024/02/25 02:10:42;;;;;;;1.73;1.02;;;;;;;6.33;44.05;99722.88;5036360;28;20096;-78
2024/02/25 02:13:10;;;;;;;2.22;0.95;;;;;;;6.35;44.30;99724.50;5013446;28;20057;-78
2024/02/25 02:15:39;;;;;;;2.25;1.00;;;;;;;6.37;44.23;99735.19;5013598;28;20092;-78
2024/02/25 02:18:07;;;;;;;1.80;0.93;;;;;;;6.37;44.01;99727.91;5010426;28;20052;-77
2024/02/25 02:20:37;;;;;;;2.13;0.90;;;;;;;6.38;44.28;99726.03;5020052;28;20051;-78
2024/02/25 02:23:07;;;;;;;2.38;1.20;;;;;;;6.38;44.22;99718.75;5014974;28;20128;-78
2024/02/25 02:25:35;;;;;;;2.25;0.90;;;;;;;6.38;44.17;99726.91;5005561;28;20083;-78
2024/02/25 02:28:03;;;;;;;2.17;1.00;;;;;;;6.35;44.08;99721.78;5007355;28;20667;-77
2024/02/25 02:30:31;;;;;;;1.95;1.02;;;;;;;6.37;44.16;99733.34;5023896;28;20501;-78
2024/02/25 02:32:59;;;;;;;2.50;1.10;;;;;;;6.38;43.99;99726.03;5006840;28;20064;-78
2024/02/25 02:35:27;;;;;;;1.95;1.02;;;;;;;6.39;44.09;99741.38;5017296;28;20095;-78
2024/02/25 02:37:55;;;;;;;1.20;0.90;;;;;;;6.38;44.38;99731.47;5009759;28;20088;-77
2024/02/25 02:40:24;;;;;;;1.52;1.00;;;;;;;6.39;43.90;99733.22;5033979;28;20477;-77
2024/02/25 02:42:54;;;;;;;3.08;1.00;;;;;;;6.38;44.05;99729.63;5015710;28;20045;-78
2024/02/25 02:45:22;;;;;;;2.00;1.02;;;;;;;6.37;43.82;99725.19;5027566;28;20508;-78
2024/02/25 02:47:50;;;;;;;1.88;0.90;;;;;;;6.36;44.04;99730.78;5012283;28;20124;-78
2024/02/25 02:50:19;;;;;;;2.13;1.00;;;;;;;6.35;44.19;99727.19;5024558;28;20458;-78
2024/02/25 02:52:47;;;;;;;2.13;1.23;;;;;;;6.36;43.88;99731.66;5025003;28;20045;-78
2024/02/25 02:55:15;;;;;;;2.03;0.90;;;;;;;6.37;44.04;99729.75;5001392;28;20061;-77
2024/02/25 02:57:44;;;;;;;1.92;1.23;;;;;;;6.38;44.32;99734.19;5033211;28;20109;-78
2024/02/25 03:00:14;;;;;;;1.30;0.88;;;;;;;6.38;44.11;99726.03;5006625;28;20276;-77
2024/02/25 03:02:42;;;;;;;2.30;1.00;;;;;;;6.37;44.15;99722.47;5004088;28;20065;-78
2024/02/25 03:05:09;;;;;;;1.52;0.80;;;;;;;6.37;43.97;99716.16;5006827;28;20084;-78
2024/02/25 03:07:37;;;;;;;1.42;0.88;;;;;;;6.38;44.29;99721.47;5029047;28;20053;-78
2024/02/25 03:10:07;;;;;;;2.45;1.00;;;;;;;6.37;44.03;99719.75;5009777;28;20053;-77
2024/02/25 03:12:35;;;;;;;1.48;0.90;;;;;;;6.35;44.20;99716.34;5023598;28;20054;-78
2024/02/25 03:15:05;;;;;;;1.55;1.13;;;;;;;6.38;44.29;99718.75;5023004;28;20698;-78
2024/02/25 03:17:33;;;;;;;1.20;0.85;;;;;;;6.35;43.96;99710.91;5020126;28;20073;-79
2024/02/25 03:20:01;;;;;;;0.93;0.77;;;;;;;6.36;43.98;99718.06;5006750;28;20113;-79
2024/02/25 03:22:29;;;;;;;2.20;0.98;;;;;;;6.37;44.30;99716.16;5022783;28;20088;-78
2024/02/25 03:24:57;;;;;;;1.52;0.90;;;;;;;6.35;44.25;99721.78;5012349;28;20069;-79
2024/02/25 03:27:25;;;;;;;1.38;0.77;;;;;;;6.37;43.95;99710.72;5000394;28;20434;-79
2024/02/25 03:29:53;;;;;;;1.63;0.85;;;;;;;6.35;44.32;99719.06;5005783;28;20041;-79
2024/02/25 03:32:22;;;;;;;1.17;0.77;;;;;;;6.37;44.26;99717.03;5017829;28;20038;-79
2024/02/25 03:34:50;;;;;;;1.10;0.60;;;;;;;6.35;44.20;99715.47;5026077;28;20035;-79
2024/02/25 03:37:19;;;;;;;1.83;0.90;;;;;;;6.34;43.96;99720.03;5006670;28;20404;-78
2024/02/25 03:39:47;;;;;;;1.33;0.73;;;;;;;6.34;44.35;99722.75;5016852;28;20512;-79
2024/02/25 03:42:15;;;;;;;1.30;0.63;;;;;;;6.34;44.37;99722.75;5006686;28;20069;-78
2024/02/25 03:44:43;;;;;;;1.17;0.70;;;;;;;6.34;44.45;99721.91;5032176;28;20045;-78
2024/02/25 03:47:11;;;;;;;0.60;0.60;;;;;;;6.34;44.19;99719.19;5018908;28;20060;-79
2024/02/25 03:49:42;;;;;;;1.83;0.50;;;;;;;6.35;44.20;99715.47;5026666;28;20041;-79
2024/02/25 03:52:10;;;;;;;0.88;0.70;;;;;;;6.34;44.20;99721.91;5008466;28;20046;-79
2024/02/25 03:54:38;;;;;;;0.93;0.80;;;;;;;6.34;44.06;99713.75;5008188;28;20048;-79
2024/02/25 03:57:06;;;;;;;1.45;0.70;;;;;;;6.34;44.17;99716.47;5028141;28;20526;-78
2024/02/25 03:59:34;;;;;;;1.27;0.90;;;;;;;6.34;44.16;99711.03;5009068;28;20067;-79
2024/02/25 04:02:03;;;;;;;1.17;0.70;;;;;;;6.33;44.31;99715.59;5016986;28;20578;-79
2024/02/25 04:04:31;;;;;;;1.52;0.80;;;;;;;6.34;44.27;99719.19;5008987;28;20045;-79
2024/02/25 04:07:01;;;;;;;1.00;0.68;;;;;;;6.34;44.40;99711.88;5009129;28;20045;-78
2024/02/25 04:09:29;;;;;;;1.10;0.50;;;;;;;6.33;44.27;99717.44;5033151;28;20133;-79
2024/02/25 04:11:57;;;;;;;0.90;0.60;;;;;;;6.33;44.20;99712.03;5009491;28;20033;-77
2024/02/25 04:14:25;;;;;;;0.80;0.50;;;;;;;6.31;44.48;99714.88;5023788;28;20041;-79
2024/02/25 04:16:53;;;;;;;0.95;0.60;;;;;;;6.33;44.32;99717.44;5020259;28;20426;-78
2024/02/25 04:19:21;;;;;;;1.00;0.70;;;;;;;6.32;44.60;99722.03;5009209;28;20073;-79
2024/02/25 04:21:50;;;;;;;1.02;0.70;;;;;;;6.33;44.21;99723.75;5005614;28;20046;-79
2024/02/25 04:24:19;;;;;;;1.10;0.70;;;;;;;6.34;44.48;99728.19;5002262;28;20041;-77
2024/02/25 04:26:49;;;;;;;1.02;0.50;;;;;;;6.34;44.23;99728.19;5009227;28;20041;-78
2024/02/25 04:29:17;;;;;;;1.00;0.60;;;;;;;6.32;44.58;99719.31;5001558;28;20080;-79
2024/02/25 04:31:46;;;;;;;0.68;0.50;;;;;;;6.32;44.46;99715.72;5002874;28;20078;-79
2024/02/25 04:34:15;;;;;;;0.95;0.60;;;;;;;6.31;44.50;99720.31;5004681;28;20100;-78
2024/02/25 04:36:43;;;;;;;1.00;0.60;;;;;;;6.31;44.46;99725.72;5013307;28;20041;-79
2024/02/25 04:39:11;;;;;;;0.60;0.52;;;;;;;6.31;44.56;99720.31;5028191;28;20045;-78
2024/02/25 04:41:40;;;;;;;0.75;0.50;;;;;;;6.31;44.46;99720.31;5026339;28;20478;-79
2024/02/25 04:44:10;;;;;;;1.33;0.60;;;;;;;6.29;44.80;99727.72;5004480;28;20061;-78
2024/02/25 04:46:39;;;;;;;0.52;0.47;;;;;;;6.31;44.63;99723.00;5005244;28;20050;-78
2024/02/25 04:49:09;;;;;;;0.73;0.55;;;;;;;6.31;45.11;99723.00;5006146;28;20145;-78
2024/02/25 04:51:37;;;;;;;0.85;0.68;;;;;;;6.32;44.89;99723.88;4999614;28;20102;-79
2024/02/25 04:54:05;;;;;;;1.50;0.70;;;;;;;6.30;44.69;99720.44;5028295;28;20132;-78
2024/02/25 04:56:33;;;;;;;0.95;0.60;;;;;;;6.31;44.94;99720.31;5020872;28;20057;-79
2024/02/25 04:59:03;;;;;;;0.60;0.50;;;;;;;6.33;45.30;99731.03;5013972;28;20095;-79
2024/02/25 05:01:31;;;;;;;0.75;0.50;;;;;;;6.30;44.90;99732.16;5007396;28;20040;-79
2024/02/25 05:03:59;;;;;;;1.10;0.50;;;;;;;6.28;45.22;99728.72;5010030;28;20057;-79
2024/02/25 05:06:27;;;;;;;1.27;0.68;;;;;;;6.31;45.22;99730.31;5004846;28;20041;-78
2024/02/25 05:08:55;;;;;;;1.08;0.70;;;;;;;6.31;45.25;99728.44;5030717;28;20033;-79
2024/02/25 05:11:23;;;;;;;0.82;0.68;;;;;;;6.29;45.35;99730.44;5030619;28;20109;-79
2024/02/25 05:13:53;;;;;;;0.82;0.65;;;;;;;6.32;45.40;99726.59;5012995;28;20041;-79
2024/02/25 05:16:22;;;;;;;0.80;0.60;;;;;;;6.33;45.33;99726.47;5009396;28;20393;-79
2024/02/25 05:18:50;;;;;;;2.30;0.80;;;;;;;6.32;45.34;99732.03;5007880;28;20037;-79
2024/02/25 05:21:19;;;;;;;0.90;0.68;;;;;;;6.33;45.13;99731.03;5007781;28;20042;-79
2024/02/25 05:23:47;;;;;;;1.17;0.60;;;;;;;6.32;45.41;99732.91;5014109;28;20084;-79
2024/02/25 05:26:15;;;;;;;1.20;0.55;;;;;;;6.31;45.16;99725.72;5026449;28;20037;-79
2024/02/25 05:28:43;;;;;;;1.55;0.70;;;;;;;6.32;45.24;99735.63;5010448;28;20124;-78
2024/02/25 05:31:14;;;;;;;0.60;0.50;;;;;;;6.33;45.22;99728.31;4998826;28;20481;-78
2024/02/25 05:33:44;;;;;;;1.05;0.68;;;;;;;6.34;45.15;99735.47;5026685;28;20048;-79
2024/02/25 05:36:12;;;;;;;1.02;0.70;;;;;;;6.32;45.34;99737.47;5001332;28;20186;-79
2024/02/25 05:38:40;;;;;;;0.85;0.70;;;;;;;6.32;45.48;99735.63;5015023;28;20037;-78
2024/02/25 05:41:10;;;;;;;0.85;0.60;;;;;;;6.32;45.18;99732.91;5025169;28;20033;-79
2024/02/25 05:43:38;;;;;;;1.13;0.75;;;;;;;6.32;45.50;99737.47;5009004;28;20049;-78
2024/02/25 05:46:06;;;;;;;1.50;0.70;;;;;;;6.32;45.65;99737.47;4996396;28;20165;-78
2024/02/25 05:48:34;;;;;;;1.23;0.80;;;;;;;6.30;45.31;99736.72;5017154;28;20035;-78
2024/02/25 05:51:04;;;;;;;0.93;0.70;;;;;;;6.32;45.29;99738.34;5004896;28;20077;-78
2024/02/25 05:53:32;;;;;;;2.30;0.80;;;;;;;6.31;45.21;99739.31;4999334;28;20132;-78
2024/02/25 05:56:00;;;;;;;0.88;0.60;;;;;;;6.31;45.42;99730.31;5001847;28;20048;-79
2024/02/25 05:58:28;;;;;;;1.52;0.80;;;;;;;6.31;45.40;99733.03;5015309;28;20570;-79
2024/02/25 06:00:56;;;;;;;0.85;0.60;;;;;;;6.30;45.52;99739.44;5002731;28;20046;-79
2024/02/25 06:03:25;;;;;;;1.70;0.60;;;;;;;6.30;45.57;99739.44;5026078;28;20496;-79
2024/02/25 06:05:57;;;;;;;1.20;0.70;;;;;;;6.29;45.66;99740.44;5005567;28;20042;-79
2024/02/25 06:08:26;;;;;;;1.45;0.70;;;;;;;6.29;45.65;99746.75;5028062;28;20042;-78
2024/02/25 06:10:54;;;;;;;1.00;0.60;;;;;;;6.29;45.44;99749.44;5005577;28;20052;-78
2024/02/25 06:13:22;;;;;;;1.10;0.60;;;;;;;6.29;45.54;99749.44;5002675;28;20045;-78
2024/02/25 06:15:50;;;;;;;1.33;0.95;;;;;;;6.29;45.53;99746.75;5014125;28;20065;-79
2024/02/25 06:18:20;;;;;;;1.30;0.70;;;;;;;6.29;45.66;99746.75;5006535;28;20049;-80
2024/02/25 06:20:48;;;;;;;1.33;0.70;;;;;;;6.29;45.54;99752.16;5003232;28;20614;-78
2024/02/25 06:23:16;;;;;;;1.55;0.70;;;;;;;6.29;45.52;99749.44;5004988;28;20065;-79
2024/02/25 06:25:45;;;;;;;1.50;0.77;;;;;;;6.31;45.71;99743.88;5002052;28;20038;-78
2024/02/25 06:28:13;;;;;;;1.23;0.70;;;;;;;6.30;45.72;99755.75;5006011;28;20465;-79
2024/02/25 06:30:41;;;;;;;1.23;0.70;;;;;;;6.29;45.91;99751.31;5005261;28;20054;-79
2024/02/25 06:33:09;;;;;;;1.10;0.70;;;;;;;6.29;45.72;99757.59;5002330;28;20137;-79
2024/02/25 06:35:37;;;;;;;1.08;0.70;;;;;;;6.28;45.95;99760.47;5008109;28;20088;-79
2024/02/25 06:38:06;;;;;;;1.67;0.68;;;;;;;6.29;45.50;99754.88;5029877;28;20041;-79
2024/02/25 06:40:34;;;;;;;1.05;0.60;;;;;;;6.30;45.88;99761.19;5016931;28;20050;-80
2024/02/25 06:43:08;;;;;;;0.63;0.60;;;;;;;6.32;45.85;99767.34;5011259;28;20119;-79
2024/02/25 06:45:36;;;;;;;0.68;0.50;;;;;;;6.29;45.70;99756.75;5017104;28;20046;-78
2024/02/25 06:48:06;;;;;;;1.08;0.60;;;;;;;6.29;45.86;99749.44;4993184;28;20050;-79
2024/02/25 06:50:35;;;;;;;2.13;0.70;;;;;;;6.31;45.66;99762.91;5007814;28;20050;-79
2024/02/25 06:53:03;;;;;;;1.10;0.70;;;;;;;6.30;45.75;99763.91;5018960;28;20054;-79
2024/02/25 06:55:31;;;;;;;2.15;0.70;;;;;;;6.30;45.64;99764.75;5010250;28;20049;-79
2024/02/25 06:57:59;;;;;;;1.83;0.70;;;;;;;6.30;46.06;99770.19;5020299;28;20061;-78
2024/02/25 07:00:29;;;;;;;0.93;0.70;;;;;;;6.32;46.12;99767.34;5020367;28;20038;-79
2024/02/25 07:02:57;;;;;;;1.02;0.60;;;;;;;6.30;45.75;99767.47;5011791;28;20100;-79
2024/02/25 07:05:25;;;;;;;1.25;0.88;;;;;;;6.31;45.78;99768.34;5001810;28;20062;-79
2024/02/25 07:07:53;;;;;;;0.80;0.63;;;;;;;6.30;45.82;99764.75;5012306;28;20042;-78
2024/02/25 07:10:21;;;;;;;1.50;0.80;;;;;;;6.29;45.82;99773.91;5013181;28;20464;-78
2024/02/25 07:12:49;;;;;;;1.98;0.90;;;;;;;6.30;45.87;99769.34;5015621;28;20081;-79
2024/02/25 07:15:17;;;;;;;2.78;0.80;;;;;;;6.30;46.22;99772.91;5021091;28;20413;-79
2024/02/25 07:17:52;;;;;;;1.20;0.70;;;;;;;6.33;45.93;99780.81;5010370;28;20494;-79
2024/02/25 07:20:21;;;;;;;1.08;0.88;;;;;;;6.31;46.19;99782.78;5002707;28;20697;-78
2024/02/25 07:22:49;;;;;;;1.25;0.80;;;;;;;6.32;46.28;99780.94;5013347;28;20099;-79
2024/02/25 07:25:16;;;;;;;2.20;0.80;;;;;;;6.33;46.07;99794.41;5019992;28;20052;-78
2024/02/25 07:27:45;;;;;;;1.85;0.90;;;;;;;6.35;45.93;99788.84;5034343;28;20563;-78
2024/02/25 07:30:13;;;;;;;1.73;0.85;;;;;;;6.34;45.92;99787.13;5030964;28;20477;-78
2024/02/25 07:32:41;;;;;;;1.23;0.80;;;;;;;6.37;46.27;99789.53;5017995;28;20046;-79
2024/02/25 07:35:11;;;;;;;2.08;0.80;;;;;;;6.38;46.27;99789.41;5010087;28;20041;-79
2024/02/25 07:37:39;;;;;;;0.90;0.63;;;;;;;6.39;45.96;99779.41;5018261;28;20053;-78
2024/02/25 07:40:09;;;;;;;1.38;0.88;;;;;;;6.40;46.21;99783.84;5006807;28;20129;-79
2024/02/25 07:42:37;;;;;;;1.08;0.60;;;;;;;6.40;45.94;99792.88;5012314;28;20064;-79
2024/02/25 07:45:06;;;;;;;1.02;0.73;;;;;;;6.42;46.15;99792.75;5009808;28;20489;-79
2024/02/25 07:47:34;;;;;;;1.23;0.75;;;;;;;6.43;45.92;99791.75;5007939;28;20050;-79
2024/02/25 07:50:02;;;;;;;1.58;0.60;;;;;;;6.43;46.23;99794.47;5011585;28;20065;-79
2024/02/25 07:52:31;;;;;;;0.80;0.52;;;;;;;6.45;45.96;99801.47;5011011;28;20069;-79
2024/02/25 07:54:59;;;;;;;0.93;0.70;;;;;;;6.45;45.93;99793.31;5026558;28;20099;-79
2024/02/25 07:57:27;;;;;;;1.05;0.65;;;;;;;6.47;45.90;99805.91;5022198;28;20063;-79
2024/02/25 07:59:55;;;;;;;0.80;0.60;;;;;;;6.47;46.11;99800.47;5015757;28;20073;-79
2024/02/25 08:02:23;;;;;;;1.38;0.60;;;;;;;6.48;45.86;99797.63;5031644;28;20064;-78
2024/02/25 08:04:51;;;;;;;1.35;0.50;;;;;;;6.50;46.05;99806.53;5019080;28;20549;-80
2024/02/25 08:07:19;;;;;;;0.50;0.40;;;;;;;6.49;46.01;99810.22;5029256;28;20472;-79
2024/02/25 08:09:49;;;;;;;1.20;0.60;;;;;;;6.52;45.86;99800.97;5008796;28;20160;-79
2024/02/25 08:12:17;;;;;;;0.85;0.50;;;;;;;6.52;45.91;99804.53;5037646;28;20037;-80
2024/02/25 08:14:45;;;;;;;0.70;0.45;;;;;;;6.53;46.13;99799.97;5011407;28;20044;-80
2024/02/25 08:17:13;;;;;;;0.93;0.60;;;;;;;6.55;45.59;99806.97;5010455;28;20042;-79
2024/02/25 08:19:41;;;;;;;0.95;0.60;;;;;;;6.57;45.85;99807.72;5023471;28;20656;-79
2024/02/25 08:22:09;;;;;;;0.45;0.45;;;;;;;6.58;45.91;99805.84;5010124;28;20046;-80
2024/02/25 08:24:37;;;;;;;0.98;0.50;;;;;;;6.59;45.75;99810.28;5009640;28;20114;-79
2024/02/25 08:27:06;;;;;;;0.52;0.45;;;;;;;6.62;45.95;99808.16;5014716;28;20049;-78
2024/02/25 08:29:35;;;;;;;0.50;0.47;;;;;;;6.63;45.75;99814.44;5021136;28;20037;-77
2024/02/25 08:32:03;;;;;;;0.65;0.45;;;;;;;6.64;45.99;99817.03;5014536;28;20038;-79
2024/02/25 08:34:32;;;;;;;0.90;0.50;;;;;;;6.66;46.03;99804.19;5013946;28;20476;-81
2024/02/25 08:37:00;;;;;;;0.77;0.40;;;;;;;6.69;45.76;99803.06;5021939;28;20072;-79
2024/02/25 08:39:28;;;;;;;2.15;0.50;;;;;;;6.70;46.06;99815.63;5021698;28;20042;-79
2024/02/25 08:41:56;;;;;;;0.60;0.40;;;;;;;6.72;45.97;99813.66;5018184;28;20081;-79
2024/02/25 08:44:25;;;;;;;0.70;0.40;;;;;;;6.73;45.59;99821.69;5017327;28;20096;-79
2024/02/25 08:46:53;;;;;;;0.73;0.60;;;;;;;6.75;46.00;99816.13;5025899;28;20048;-79
2024/02/25 08:49:23;;;;;;;1.20;0.65;;;;;;;6.76;46.09;99818.72;5008397;28;20053;-78
2024/02/25 08:51:52;;;;;;;0.93;0.50;;;;;;;6.78;45.89;99810.41;5005024;28;20053;-78
2024/02/25 08:54:19;;;;;;;1.17;0.40;;;;;;;6.81;45.69;99810.16;5009405;28;20464;-79
2024/02/25 08:56:47;;;;;;;0.65;0.50;;;;;;;6.83;45.94;99824.47;5029755;28;20548;-79
2024/02/25 08:59:15;;;;;;;0.38;0.38;;;;;;;6.86;45.78;99823.34;5008611;28;20049;-80
2024/02/25 09:01:45;;;;;;;0.55;0.50;;;;;;;6.89;45.61;99823.94;5008299;28;20131;-80
2024/02/25 09:04:13;;;;;;;0.98;0.60;;;;;;;6.90;45.70;99812.06;5022825;28;20038;-78
2024/02/25 09:06:42;;;;;;;0.73;0.50;;;;;;;6.93;45.73;99817.25;5012205;28;20073;-78
2024/02/25 09:09:10;;;;;;;1.42;0.50;;;;;;;6.94;45.47;99810.78;5027271;28;20128;-78
2024/02/25 09:11:40;;;;;;;1.42;1.13;;;;;;;6.97;45.79;99815.94;5017214;28;20061;-78
2024/02/25 09:14:08;;;;;;;0.68;0.45;;;;;;;6.99;45.73;99813.09;5022908;28;20041;-79
2024/02/25 09:16:38;;;;;;;0.85;0.68;;;;;;;7.03;45.47;99818.13;5016061;28;20042;-80
2024/02/25 09:19:07;;;;;;;1.45;0.40;;;;;;;7.05;45.50;99813.41;5019567;28;20116;-78
2024/02/25 09:21:35;;;;;;;0.68;0.43;;;;;;;7.07;45.50;99819.56;5009245;28;20053;-80
2024/02/25 09:24:04;;;;;;;1.23;0.50;;;;;;;7.09;45.63;99814.88;5022099;28;20088;-80
2024/02/25 09:26:32;;;;;;;0.60;0.50;;;;;;;7.10;45.07;99819.31;5027067;28;20041;-79
2024/02/25 09:29:02;;;;;;;0.70;0.50;;;;;;;7.12;45.26;99811.00;5009951;28;20054;-77
2024/02/25 09:31:30;;;;;;;0.35;0.35;;;;;;;7.15;45.15;99817.03;5019861;28;20053;-79
2024/02/25 09:33:58;;;;;;;2.60;0.50;;;;;;;7.18;45.14;99824.06;5011574;28;20041;-79
2024/02/25 09:36:29;;;;;;;0.45;0.45;;;;;;;7.21;45.25;99818.31;5034458;28;20101;-78
2024/02/25 09:38:58;;;;;;;0.50;0.40;;;;;;;7.22;45.26;99820.06;5017981;28;20060;-79
2024/02/25 09:41:28;;;;;;;1.48;0.40;;;;;;;7.25;44.97;99818.94;5021527;28;20152;-78
2024/02/25 09:43:57;;;;;;;0.65;0.40;;;;;;;7.28;44.83;99818.63;5019684;28;20115;-79
2024/02/25 09:46:25;;;;;;;1.15;0.40;;;;;;;7.29;45.04;99814.91;5033221;28;20121;-79
2024/02/25 09:48:54;;;;;;;0.85;0.52;;;;;;;7.31;45.03;99815.63;5018098;28;20051;-78
2024/02/25 09:51:23;;;;;;;0.93;0.52;;;;;;;7.33;44.78;99805.47;5020720;28;20169;-79
2024/02/25 09:53:55;;;;;;;0.60;0.40;;;;;;;7.38;44.79;99811.34;5007882;28;20046;-80
2024/02/25 09:56:24;;;;;;;0.65;0.52;;;;;;;7.37;45.21;99807.78;5016025;28;20054;-78
2024/02/25 09:58:52;;;;;;;1.58;0.52;;;;;;;7.44;45.42;99803.47;5018138;28;20049;-80
2024/02/25 10:01:21;;;;;;;0.80;0.50;;;;;;;7.51;45.32;99796.50;5017661;28;20034;-80
2024/02/25 10:03:49;;;;;;;0.38;0.28;;;;;;;7.59;45.48;99795.81;5037165;28;20077;-79
2024/02/25 10:06:17;;;;;;;1.15;0.50;;;;;;;7.67;45.23;99797.81;5015314;28;20049;-79
2024/02/25 10:08:47;;;;;;;0.38;0.30;;;;;;;7.75;45.53;99798.81;5030824;28;20118;-78
2024/02/25 10:11:17;;;;;;;0.50;0.40;;;;;;;7.84;45.39;99800.69;5037099;28;20052;-79
2024/02/25 10:13:46;;;;;;;1.00;0.40;;;;;;;7.91;45.10;99792.81;5021249;28;20471;-79
2024/02/25 10:16:19;;;;;;;1.00;0.40;;;;;;;7.99;45.04;99797.53;5022162;28;20065;-80
2024/02/25 10:18:50;;;;;;;1.02;0.50;;;;;;;8.08;44.11;99799.41;5009072;28;20055;-79
2024/02/25 10:21:20;;;;;;;0.65;0.40;;;;;;;8.12;44.92;99800.81;5017851;28;20045;-79
2024/02/25 10:23:53;;;;;;;1.05;0.60;;;;;;;8.21;43.71;99797.25;5021039;28;20053;-78
2024/02/25 10:26:24;;;;;;;0.63;0.40;;;;;;;8.23;44.20;99793.41;5013768;28;20046;-79
2024/02/25 10:29:11;;;;;;;0.93;0.60;;;;;;;8.27;42.96;99800.25;5032324;28;20048;-77
2024/02/25 10:31:39;;;;;;;0.85;0.30;;;;;;;8.30;43.97;99794.53;5025126;28;20101;-78
2024/02/25 10:34:09;;;;;;;0.70;0.50;;;;;;;8.36;44.20;99789.50;5017986;28;20412;-79
2024/02/25 10:36:40;;;;;;;1.23;0.40;;;;;;;8.39;44.16;99794.66;5008143;28;20049;-78
2024/02/25 10:39:09;;;;;;;1.25;0.45;;;;;;;8.42;43.83;99789.78;5043465;28;20069;-79
2024/02/25 10:41:38;;;;;;;1.13;0.55;;;;;;;8.47;43.51;99792.91;5013100;28;20084;-78
2024/02/25 10:44:08;;;;;;;0.85;0.40;;;;;;;8.48;43.19;99785.59;5005811;28;20104;-79
2024/02/25 10:46:41;;;;;;;1.45;0.55;;;;;;;8.49;43.12;99790.91;5012483;28;20108;-79
2024/02/25 10:49:13;;;;;;;1.33;0.50;;;;;;;8.52;43.25;99787.00;5041448;28;20581;-78
2024/02/25 10:51:41;;;;;;;1.45;0.75;;;;;;;8.51;43.23;99788.88;5015238;28;20078;-79
2024/02/25 10:54:12;;;;;;;1.15;0.50;;;;;;;8.53;43.49;99792.31;5043521;28;20034;-77
2024/02/25 10:56:43;;;;;;;2.05;0.70;;;;;;;8.55;42.75;99801.22;5009917;28;20038;-80
2024/02/25 10:59:16;;;;;;;1.42;0.50;;;;;;;8.55;42.87;99797.63;5029655;28;20252;-79
2024/02/25 11:01:48;;;;;;;1.30;0.60;;;;;;;8.55;42.95;99800.38;5019519;28;20064;-78
2024/02/25 11:04:17;;;;;;;1.15;0.57;;;;;;;8.53;43.07;99796.91;5006390;28;20050;-78
2024/02/25 11:06:45;;;;;;;0.80;0.57;;;;;;;8.54;43.12;99799.50;5011790;28;20378;-79
2024/02/25 11:09:14;;;;;;;1.45;0.68;;;;;;;8.55;43.29;99784.00;5036787;28;20051;-80
2024/02/25 11:11:45;;;;;;;1.25;0.50;;;;;;;8.56;43.12;99778.41;5040692;28;20346;-77
2024/02/25 11:14:35;;;;;;;0.98;0.50;;;;;;;8.54;42.86;99783.13;5007940;28;20046;-80
2024/02/25 11:17:05;;;;;;;1.10;0.60;;;;;;;8.55;43.11;99773.97;5029253;28;20085;-79
2024/02/25 11:19:34;;;;;;;1.48;0.60;;;;;;;8.57;43.07;99776.53;5019341;28;20045;-79
2024/02/25 11:22:02;;;;;;;1.90;0.63;;;;;;;8.59;43.16;99763.59;5019323;28;20033;-80
2024/02/25 11:24:47;;;;;;;1.30;0.60;;;;;;;8.62;42.10;99768.75;5025439;28;20041;-79
2024/02/25 11:27:18;;;;;;;2.03;0.50;;;;;;;8.62;43.13;99772.34;5037675;28;20053;-78
2024/02/25 11:29:47;;;;;;;0.82;0.45;;;;;;;8.66;43.25;99759.28;5027170;28;20037;-79
2024/02/25 11:32:31;;;;;;;0.77;0.50;;;;;;;8.70;42.23;99763.41;5036151;28;20045;-79
2024/02/25 11:35:00;;;;;;;2.40;0.63;;;;;;;8.71;42.96;99762.41;5024194;28;20056;-79
2024/02/25 11:37:28;;;;;;;1.65;0.68;;;;;;;8.76;42.51;99762.81;5017844;28;20053;-80
2024/02/25 11:39:57;;;;;;;1.30;0.50;;;;;;;8.81;42.31;99757.78;5024418;28;20479;-81
2024/02/25 11:42:27;;;;;;;1.33;0.60;;;;;;;8.83;42.20;99758.50;5029357;28;20123;-80
2024/02/25 11:44:55;;;;;;;1.17;0.55;;;;;;;8.85;42.69;99753.75;5034081;28;20111;-77
2024/02/25 11:47:23;;;;;;;1.23;0.70;;;;;;;8.87;42.48;99757.19;5019888;28;20041;-79
2024/02/25 11:49:52;;;;;;;0.90;0.60;;;;;;;8.90;42.29;99756.91;5041012;28;20052;-80
2024/02/25 11:52:21;;;;;;;1.63;0.60;;;;;;;8.90;41.84;99754.16;5040088;28;20069;-80